Time;durP1;ratioP1;P1;durP2;ratioP2;P2;SDS_P1;SDS_P2;PMS_P1;PMS_P2;Temp;Humidity;BMP_temperature;BMP_pressure;BME280_temperature;BME280_humidity;BME280_pressure;Samples;Min_cycle;Max_cycle;Signal;HPM_P1;HPM_P2
2022/07/16 00:03:31;;;;;;;5.95;5.47;;;21.80;49.90;;;;;;5022383;28;20186;-88
2022/07/16 00:05:57;;;;;;;6.60;6.10;;;21.80;50.00;;;;;;5027563;28;20213;-87
2022/07/16 00:08:23;;;;;;;6.03;5.50;;;21.80;49.60;;;;;;5006089;28;20207;-88
2022/07/16 00:10:48;;;;;;;6.07;5.68;;;21.90;49.60;;;;;;5017032;28;20208;-89
2022/07/16 00:13:14;;;;;;;6.93;6.22;;;21.80;49.50;;;;;;5000606;28;20620;-88
2022/07/16 00:15:40;;;;;;;6.05;5.55;;;21.70;49.70;;;;;;4999748;28;20215;-88
2022/07/16 00:20:50;;;;;;;6.38;5.93;;;21.70;50.40;;;;;;5011229;28;20213;-88
2022/07/16 00:23:15;;;;;;;6.18;5.78;;;21.60;50.40;;;;;;4997679;28;20190;-86
2022/07/16 00:25:41;;;;;;;6.30;5.80;;;21.50;50.90;;;;;;5020907;28;20211;-87
2022/07/16 00:28:08;;;;;;;6.55;6.03;;;21.40;50.70;;;;;;5004298;28;20197;-86
2022/07/16 00:30:33;;;;;;;6.82;6.10;;;21.30;51.00;;;;;;5016126;28;20633;-87
2022/07/16 00:33:00;;;;;;;6.13;5.63;;;21.20;50.90;;;;;;4995844;28;20197;-86
2022/07/16 00:35:27;;;;;;;6.38;5.88;;;21.10;51.60;;;;;;4991330;28;20212;-87
2022/07/16 00:37:53;;;;;;;6.15;5.75;;;21.10;52.10;;;;;;5026481;28;20208;-86
2022/07/16 00:40:20;;;;;;;5.43;5.03;;;21.10;52.40;;;;;;5013815;28;20192;-87
2022/07/16 00:42:45;;;;;;;6.40;5.78;;;21.00;51.60;;;;;;4985367;28;20200;-86
2022/07/16 00:45:12;;;;;;;5.60;5.20;;;21.00;52.00;;;;;;5016477;28;20257;-88
2022/07/16 00:47:38;;;;;;;5.85;5.47;;;21.00;52.30;;;;;;5020686;28;20240;-87
2022/07/16 00:50:04;;;;;;;6.03;5.63;;;20.90;52.40;;;;;;5019091;28;20203;-86
2022/07/16 00:52:30;;;;;;;5.85;5.43;;;20.80;52.20;;;;;;5016821;28;20663;-89
2022/07/16 00:54:55;;;;;;;5.55;5.10;;;20.60;53.60;;;;;;5026019;28;20608;-88
2022/07/16 00:57:21;;;;;;;6.25;5.47;;;20.60;53.60;;;;;;5022335;28;20206;-88
2022/07/16 00:59:47;;;;;;;5.38;4.97;;;20.70;53.50;;;;;;5000822;28;20218;-88
2022/07/16 01:02:12;;;;;;;5.43;4.93;;;20.70;53.10;;;;;;5004764;28;20694;-88
2022/07/16 01:04:38;;;;;;;5.93;5.35;;;20.70;53.00;;;;;;5018037;28;20526;-89
2022/07/16 01:07:05;;;;;;;5.80;5.40;;;20.70;53.10;;;;;;4991869;28;20262;-87
2022/07/16 01:09:32;;;;;;;6.03;5.63;;;20.60;53.20;;;;;;5025505;28;20252;-88
2022/07/16 01:11:58;;;;;;;5.85;5.45;;;20.50;53.70;;;;;;5011627;28;20198;-88
2022/07/16 01:14:25;;;;;;;5.75;5.30;;;20.40;54.40;;;;;;5002167;28;20271;-89
2022/07/16 01:16:51;;;;;;;5.30;5.00;;;20.40;54.20;;;;;;5009777;28;20257;-87
2022/07/16 01:19:17;;;;;;;5.50;5.05;;;20.30;54.50;;;;;;4992485;28;20281;-88
2022/07/16 01:21:43;;;;;;;5.88;5.47;;;20.40;54.10;;;;;;4992405;28;20192;-88
2022/07/16 01:24:08;;;;;;;7.82;6.88;;;20.40;54.30;;;;;;5009803;28;20197;-87
2022/07/16 01:26:34;;;;;;;9.65;6.25;;;20.30;54.00;;;;;;5003433;28;20206;-87
2022/07/16 01:29:00;;;;;;;5.22;4.72;;;20.20;54.30;;;;;;5006612;28;20195;-86
2022/07/16 01:31:26;;;;;;;5.10;4.80;;;20.20;54.60;;;;;;4992182;28;20861;-88
2022/07/16 01:36:38;;;;;;;5.00;4.70;;;20.20;54.20;;;;;;5012016;28;20853;-88
2022/07/16 01:39:04;;;;;;;5.18;4.85;;;20.20;54.50;;;;;;5000698;28;20190;-88
2022/07/16 01:41:30;;;;;;;5.60;5.20;;;20.20;54.60;;;;;;5012658;28;20182;-88
2022/07/16 01:43:56;;;;;;;5.82;5.32;;;20.10;54.70;;;;;;5013470;28;20193;-86
2022/07/16 01:46:22;;;;;;;5.03;4.68;;;20.10;55.00;;;;;;5013797;28;20248;-86
2022/07/16 01:48:47;;;;;;;5.00;4.55;;;20.10;54.60;;;;;;5023082;28;20216;-88
2022/07/16 01:51:13;;;;;;;4.90;4.60;;;20.00;54.60;;;;;;4993238;28;20201;-87
2022/07/16 01:53:38;;;;;;;5.05;4.75;;;20.00;55.10;;;;;;5009901;28;20709;-88
2022/07/16 01:56:05;;;;;;;5.15;4.75;;;19.90;54.90;;;;;;5000125;28;20214;-87
2022/07/16 01:58:31;;;;;;;5.40;5.00;;;20.00;54.50;;;;;;4996204;28;20189;-88
2022/07/16 02:00:57;;;;;;;4.90;4.60;;;20.00;54.60;;;;;;4991380;28;20186;-88
2022/07/16 02:03:22;;;;;;;5.55;5.05;;;19.90;55.10;;;;;;5013617;28;20190;-88
2022/07/16 02:05:48;;;;;;;5.15;4.85;;;19.90;54.80;;;;;;5020601;28;20216;-88
2022/07/16 02:08:15;;;;;;;4.95;4.55;;;19.80;55.40;;;;;;5000959;28;20192;-87
2022/07/16 02:10:40;;;;;;;5.20;4.90;;;19.80;55.20;;;;;;5020317;28;20185;-88
2022/07/16 02:13:06;;;;;;;5.43;4.93;;;19.80;54.50;;;;;;4992915;28;20522;-88
2022/07/16 02:15:33;;;;;;;4.88;4.47;;;19.40;56.40;;;;;;4985453;28;20210;-87
2022/07/16 02:17:59;;;;;;;5.43;4.93;;;19.40;56.80;;;;;;5010209;28;20213;-88
2022/07/16 02:20:24;;;;;;;4.97;4.63;;;19.30;57.00;;;;;;5014127;28;20190;-88
2022/07/16 02:22:52;;;;;;;5.72;5.15;;;19.30;57.00;;;;;;4979538;28;20254;-87
2022/07/16 02:25:18;;;;;;;5.13;4.72;;;19.40;56.50;;;;;;5006285;28;20213;-87
2022/07/16 02:30:29;;;;;;;5.15;4.70;;;19.30;56.90;;;;;;5035012;28;20220;-85
2022/07/16 02:32:54;;;;;;;5.60;5.20;;;19.20;57.30;;;;;;5012692;28;20195;-88
2022/07/16 02:35:20;;;;;;;5.10;4.80;;;19.30;57.40;;;;;;5014611;28;20466;-86
2022/07/16 02:37:46;;;;;;;6.13;5.25;;;19.30;56.90;;;;;;5000426;28;20221;-87
2022/07/16 02:40:13;;;;;;;4.90;4.50;;;19.20;57.20;;;;;;5011363;28;20280;-88
2022/07/16 02:42:39;;;;;;;5.60;4.80;;;19.20;57.50;;;;;;5016356;28;20182;-88
2022/07/16 02:45:07;;;;;;;5.10;4.60;;;19.20;57.20;;;;;;5020071;28;20233;-88
2022/07/16 02:47:33;;;;;;;4.88;4.47;;;19.20;57.10;;;;;;5010940;28;20769;-88
2022/07/16 02:49:59;;;;;;;5.22;4.82;;;19.30;56.80;;;;;;5010591;28;20193;-88
2022/07/16 02:52:25;;;;;;;6.00;4.95;;;19.30;57.10;;;;;;5020503;28;20232;-89
2022/07/16 02:54:50;;;;;;;5.03;4.63;;;19.30;57.10;;;;;;5016659;28;20818;-88
2022/07/16 02:57:16;;;;;;;5.60;5.20;;;19.30;57.10;;;;;;5006425;28;20206;-88
2022/07/16 02:59:42;;;;;;;5.45;5.05;;;19.20;56.30;;;;;;5016653;28;20190;-87
2022/07/16 03:02:07;;;;;;;4.97;4.53;;;19.10;57.20;;;;;;5011209;28;20201;-86
2022/07/16 03:04:33;;;;;;;5.40;5.00;;;18.90;57.90;;;;;;5018259;28;20672;-87
2022/07/16 03:06:59;;;;;;;6.20;5.07;;;19.00;57.60;;;;;;4987675;28;20324;-86
2022/07/16 03:09:25;;;;;;;5.20;4.80;;;19.00;57.20;;;;;;4984544;28;20661;-87
2022/07/16 03:11:50;;;;;;;5.00;4.70;;;18.90;57.90;;;;;;5001026;28;20208;-88
2022/07/16 03:14:16;;;;;;;5.15;4.78;;;18.80;58.50;;;;;;5016374;28;20537;-87
2022/07/16 03:16:42;;;;;;;9.05;5.70;;;18.70;58.60;;;;;;4986752;28;20304;-88
2022/07/16 03:19:07;;;;;;;5.60;5.10;;;18.70;58.50;;;;;;5013510;28;20240;-88
2022/07/16 03:21:33;;;;;;;9.10;5.20;;;18.70;58.90;;;;;;5020842;28;20182;-88
2022/07/16 03:23:59;;;;;;;5.38;4.97;;;18.80;58.60;;;;;;5026100;28;20223;-87
2022/07/16 03:26:24;;;;;;;6.35;5.10;;;18.80;57.90;;;;;;5006019;28;20214;-88
2022/07/16 03:28:50;;;;;;;5.28;4.85;;;18.90;57.90;;;;;;5018583;28;20205;-88
2022/07/16 03:31:17;;;;;;;5.47;4.95;;;18.90;58.00;;;;;;5017079;28;20204;-87
2022/07/16 03:33:43;;;;;;;6.45;4.68;;;18.90;58.00;;;;;;5000968;28;20221;-87
2022/07/16 03:36:09;;;;;;;5.40;4.90;;;18.80;58.10;;;;;;5013423;28;20213;-88
2022/07/16 03:41:19;;;;;;;4.85;4.55;;;18.80;58.60;;;;;;5015975;28;20216;-88
2022/07/16 03:43:45;;;;;;;5.13;4.63;;;18.70;58.50;;;;;;5018653;28;20182;-88
2022/07/16 03:46:13;;;;;;;5.50;5.00;;;18.70;58.50;;;;;;5014835;28;20226;-87
2022/07/16 03:48:39;;;;;;;5.07;4.78;;;18.80;58.50;;;;;;5021700;28;20181;-87
2022/07/16 03:51:06;;;;;;;5.13;4.72;;;18.80;58.80;;;;;;4998555;28;20209;-87
2022/07/16 03:53:33;;;;;;;4.88;4.47;;;18.80;58.60;;;;;;5008733;28;20194;-86
2022/07/16 03:55:59;;;;;;;5.85;5.20;;;18.70;58.60;;;;;;4998649;28;20221;-85
2022/07/16 03:58:26;;;;;;;4.90;4.60;;;18.70;58.50;;;;;;5019353;28;20231;-88
2022/07/16 04:00:52;;;;;;;5.15;4.85;;;18.60;59.20;;;;;;5022656;28;20182;-86
2022/07/16 04:03:18;;;;;;;5.13;4.82;;;18.60;59.00;;;;;;5008459;28;20185;-87
2022/07/16 04:05:44;;;;;;;5.13;4.72;;;18.50;59.40;;;;;;5011894;28;20234;-87
2022/07/16 04:08:09;;;;;;;5.32;4.93;;;18.50;59.50;;;;;;5012437;28;20639;-86
2022/07/16 04:10:35;;;;;;;5.32;4.82;;;18.50;59.60;;;;;;5018541;28;20284;-87
2022/07/16 04:13:01;;;;;;;5.10;4.80;;;18.50;59.50;;;;;;4995421;28;20194;-87
2022/07/16 04:15:26;;;;;;;5.22;4.72;;;18.50;59.00;;;;;;5009345;28;20205;-87
2022/07/16 04:17:52;;;;;;;4.97;4.60;;;18.60;59.20;;;;;;5016712;28;20210;-87
2022/07/16 04:20:18;;;;;;;5.53;5.13;;;18.50;60.30;;;;;;4998834;28;20495;-87
2022/07/16 04:22:44;;;;;;;5.78;5.20;;;18.40;60.30;;;;;;4994795;28;20189;-87
2022/07/16 04:25:12;;;;;;;5.80;5.40;;;18.40;60.30;;;;;;5018499;28;20213;-87
2022/07/16 04:27:41;;;;;;;7.05;5.22;;;18.50;60.10;;;;;;5011999;28;20336;-87
2022/07/16 04:30:08;;;;;;;5.78;5.18;;;18.40;60.10;;;;;;5016075;28;20189;-87
2022/07/16 04:32:35;;;;;;;5.90;5.50;;;18.40;60.50;;;;;;5010319;28;20255;-86
2022/07/16 04:35:01;;;;;;;5.45;5.05;;;18.40;60.70;;;;;;5015381;28;20200;-86
2022/07/16 04:37:26;;;;;;;5.60;5.07;;;18.30;61.00;;;;;;5017992;28;20227;-88
2022/07/16 04:39:52;;;;;;;5.55;5.15;;;18.30;61.40;;;;;;5015426;28;20551;-87
2022/07/16 04:42:18;;;;;;;5.97;5.43;;;18.50;61.50;;;;;;5021625;28;20216;-87
2022/07/16 04:44:44;;;;;;;5.60;5.20;;;18.50;61.30;;;;;;5018254;28;20178;-87
2022/07/16 04:47:10;;;;;;;6.05;5.55;;;18.50;61.40;;;;;;5017886;28;20219;-87
2022/07/16 04:49:36;;;;;;;5.70;5.20;;;18.50;61.50;;;;;;5015241;28;20200;-88
2022/07/16 04:52:02;;;;;;;5.47;4.88;;;18.40;61.50;;;;;;5011014;28;20215;-87
2022/07/16 04:54:28;;;;;;;6.07;5.57;;;18.50;61.50;;;;;;5021635;28;20735;-87
2022/07/16 04:56:54;;;;;;;5.78;5.20;;;18.60;61.10;;;;;;5009013;28;20209;-87
2022/07/16 04:59:20;;;;;;;6.15;5.55;;;18.60;61.10;;;;;;5019293;28;20216;-86
2022/07/16 05:01:45;;;;;;;6.97;6.10;;;18.70;60.90;;;;;;5018447;28;20178;-87
2022/07/16 05:04:11;;;;;;;6.05;5.40;;;18.80;61.00;;;;;;5019332;28;20683;-86
2022/07/16 05:06:37;;;;;;;5.82;5.32;;;18.80;61.20;;;;;;5017429;28;20210;-86
2022/07/16 05:09:03;;;;;;;5.30;4.80;;;18.80;61.50;;;;;;5018550;28;20721;-86
2022/07/16 05:11:29;;;;;;;6.13;5.47;;;18.80;61.50;;;;;;5021754;28;20204;-86
2022/07/16 05:13:55;;;;;;;5.72;5.20;;;18.90;61.20;;;;;;5011825;28;20268;-86
2022/07/16 05:16:22;;;;;;;5.57;5.07;;;19.00;61.00;;;;;;5011315;28;20233;-87
2022/07/16 05:18:48;;;;;;;8.38;7.03;;;19.00;60.90;;;;;;5021627;28;20429;-87
2022/07/16 05:21:14;;;;;;;5.93;5.43;;;19.10;61.20;;;;;;5037446;28;20180;-87
2022/07/16 05:23:40;;;;;;;10.20;6.75;;;19.20;61.30;;;;;;5010000;28;20201;-86
2022/07/16 05:26:06;;;;;;;7.47;6.60;;;19.30;62.10;;;;;;5012395;28;20225;-86
2022/07/16 05:28:31;;;;;;;6.85;6.20;;;19.30;61.10;;;;;;5009623;28;20244;-87
2022/07/16 05:30:57;;;;;;;5.97;5.57;;;19.40;60.90;;;;;;5018555;28;20185;-86
2022/07/16 05:33:23;;;;;;;6.57;5.95;;;19.30;61.90;;;;;;5018220;28;20197;-87
2022/07/16 05:35:49;;;;;;;6.15;5.65;;;19.40;62.10;;;;;;5009895;28;20218;-86
2022/07/16 05:38:14;;;;;;;6.60;6.00;;;19.50;61.90;;;;;;5003126;28;20205;-85
2022/07/16 05:40:40;;;;;;;8.25;6.50;;;19.60;62.10;;;;;;5002272;28;20198;-86
2022/07/16 05:43:06;;;;;;;6.95;6.32;;;19.50;61.10;;;;;;5003304;28;20206;-86
2022/07/16 05:45:32;;;;;;;6.60;6.03;;;19.60;60.30;;;;;;5002019;28;20233;-86
2022/07/16 05:47:58;;;;;;;6.38;5.93;;;19.60;61.90;;;;;;5012474;28;20316;-86
2022/07/16 05:50:24;;;;;;;7.80;6.10;;;19.60;61.40;;;;;;5012185;28;20182;-86
2022/07/16 05:52:50;;;;;;;6.22;5.68;;;19.70;61.00;;;;;;5008380;28;20194;-86
2022/07/16 05:55:16;;;;;;;7.10;6.00;;;19.80;58.50;;;;;;5016527;28;20484;-86
2022/07/16 05:57:42;;;;;;;6.07;5.60;;;19.80;62.70;;;;;;5018754;28;20209;-86
2022/07/16 06:00:10;;;;;;;5.95;5.40;;;19.90;60.70;;;;;;5019313;28;20193;-85
2022/07/16 06:02:37;;;;;;;6.07;5.35;;;19.90;57.90;;;;;;5014611;28;20190;-85
2022/07/16 06:05:03;;;;;;;5.88;5.40;;;19.90;54.80;;;;;;5027121;28;20185;-85
2022/07/16 06:07:29;;;;;;;8.07;5.43;;;19.90;55.80;;;;;;5008377;28;20202;-86
2022/07/16 06:09:54;;;;;;;6.40;5.50;;;20.00;56.70;;;;;;5039566;28;20803;-85
2022/07/16 06:12:20;;;;;;;5.65;4.97;;;20.10;55.90;;;;;;5026389;28;20186;-86
2022/07/16 06:14:46;;;;;;;6.30;5.80;;;20.10;55.20;;;;;;5023097;28;20678;-86
2022/07/16 06:17:13;;;;;;;7.05;5.50;;;20.20;54.70;;;;;;5021864;28;20215;-86
2022/07/16 06:19:43;;;;;;;6.03;5.50;;;20.20;55.10;;;;;;5018937;28;20255;-86
2022/07/16 06:22:10;;;;;;;6.50;6.00;;;20.30;53.20;;;;;;5006377;28;20304;-86
2022/07/16 06:24:36;;;;;;;6.25;5.63;;;20.30;53.60;;;;;;5021818;28;20254;-84
2022/07/16 06:27:03;;;;;;;6.53;5.97;;;20.10;51.70;;;;;;5023850;28;20220;-87
2022/07/16 06:29:29;;;;;;;7.95;5.60;;;20.10;51.80;;;;;;5020527;28;20225;-86
2022/07/16 06:31:54;;;;;;;5.20;4.70;;;20.20;52.50;;;;;;5006593;28;20276;-87
2022/07/16 06:34:20;;;;;;;5.53;5.13;;;20.30;52.10;;;;;;5003356;28;20239;-86
2022/07/16 06:36:46;;;;;;;5.90;5.30;;;20.40;50.90;;;;;;5013816;28;20214;-87
2022/07/16 06:39:12;;;;;;;6.30;5.38;;;20.50;52.00;;;;;;5020170;28;20183;-87
2022/07/16 06:41:39;;;;;;;6.25;5.32;;;20.60;51.80;;;;;;4978820;28;20187;-86
2022/07/16 06:44:06;;;;;;;6.45;5.85;;;20.50;50.80;;;;;;5010022;28;20238;-87
2022/07/16 06:46:32;;;;;;;6.38;5.60;;;20.50;50.80;;;;;;5016031;28;20218;-87
2022/07/16 06:48:58;;;;;;;5.93;5.28;;;20.60;51.30;;;;;;5020154;28;20178;-86
2022/07/16 06:51:24;;;;;;;8.05;5.50;;;20.60;51.30;;;;;;5001037;28;20197;-88
2022/07/16 06:53:49;;;;;;;5.95;5.45;;;20.80;51.10;;;;;;5000536;28;20309;-87
2022/07/16 06:56:15;;;;;;;5.65;5.22;;;20.90;50.60;;;;;;5002709;28;20302;-87
2022/07/16 06:58:41;;;;;;;6.35;5.28;;;21.10;51.00;;;;;;5006051;28;20211;-89
2022/07/16 07:01:08;;;;;;;6.03;5.50;;;21.20;48.70;;;;;;5013566;28;20189;-85
2022/07/16 07:03:34;;;;;;;5.53;5.13;;;21.30;49.20;;;;;;5006946;28;20207;-86
2022/07/16 07:05:59;;;;;;;5.68;5.10;;;21.30;48.40;;;;;;5010136;28;20227;-87
2022/07/16 07:08:25;;;;;;;5.50;5.10;;;21.30;47.80;;;;;;4995798;28;20193;-86
2022/07/16 07:10:51;;;;;;;6.25;5.55;;;21.30;47.80;;;;;;4998514;28;20185;-86
2022/07/16 07:13:17;;;;;;;6.05;5.50;;;21.50;46.60;;;;;;5016010;28;20750;-87
2022/07/16 07:15:43;;;;;;;6.45;5.22;;;21.50;46.60;;;;;;5023211;28;20216;-88
2022/07/16 07:18:09;;;;;;;5.55;5.05;;;21.60;45.90;;;;;;4996220;28;20730;-88
2022/07/16 07:20:34;;;;;;;7.50;5.53;;;21.60;46.00;;;;;;5005473;28;20241;-87
2022/07/16 07:23:00;;;;;;;5.90;5.40;;;21.50;44.50;;;;;;5010890;28;20200;-89
2022/07/16 07:25:26;;;;;;;5.32;4.82;;;21.60;44.90;;;;;;5009972;28;20451;-87
2022/07/16 07:27:52;;;;;;;5.63;4.97;;;21.70;43.50;;;;;;5008050;28;20189;-86
2022/07/16 07:30:18;;;;;;;5.53;4.82;;;21.70;43.70;;;;;;5008391;28;20219;-87
2022/07/16 07:32:44;;;;;;;5.53;5.00;;;21.70;44.10;;;;;;5014351;28;20212;-88
2022/07/16 07:35:10;;;;;;;5.70;5.20;;;21.70;44.00;;;;;;4996707;28;20199;-84
2022/07/16 07:37:36;;;;;;;5.28;4.88;;;21.80;42.80;;;;;;5013498;28;20241;-86
2022/07/16 07:40:04;;;;;;;5.72;5.22;;;21.90;43.60;;;;;;5026185;28;20180;-83
2022/07/16 07:42:30;;;;;;;6.93;4.93;;;21.90;43.10;;;;;;4997179;28;20196;-88
2022/07/16 07:44:56;;;;;;;6.88;4.93;;;21.90;42.90;;;;;;5007537;28;20559;-87
2022/07/16 07:47:21;;;;;;;5.43;4.97;;;22.00;42.20;;;;;;5012378;28;20224;-87
2022/07/16 07:49:47;;;;;;;5.65;5.15;;;22.10;42.40;;;;;;4990930;28;20240;-87
2022/07/16 07:52:13;;;;;;;5.60;5.20;;;22.10;43.50;;;;;;4984162;28;20213;-88
2022/07/16 07:54:40;;;;;;;5.75;5.35;;;22.20;42.90;;;;;;5005256;28;20566;-87
2022/07/16 07:57:06;;;;;;;10.75;5.70;;;22.50;42.20;;;;;;5007424;28;20225;-89
2022/07/16 07:59:32;;;;;;;5.60;5.10;;;22.60;42.60;;;;;;5019761;28;20189;-87
2022/07/16 08:01:57;;;;;;;8.90;5.47;;;22.60;42.70;;;;;;4995876;28;20240;-87
2022/07/16 08:04:23;;;;;;;5.78;5.28;;;22.50;43.50;;;;;;5010127;28;20200;-89
2022/07/16 08:06:49;;;;;;;5.75;5.25;;;22.30;44.80;;;;;;5020937;28;20224;-85
2022/07/16 08:09:14;;;;;;;5.38;4.90;;;22.40;42.90;;;;;;5029272;28;20200;-87
2022/07/16 08:11:40;;;;;;;5.55;5.00;;;22.60;42.10;;;;;;5020447;28;20282;-88
2022/07/16 08:14:06;;;;;;;5.20;4.50;;;22.70;40.50;;;;;;5014655;28;20257;-88
2022/07/16 08:16:31;;;;;;;4.50;3.88;;;22.90;38.80;;;;;;4987276;28;20279;-86
2022/07/16 08:18:57;;;;;;;3.85;3.55;;;22.90;37.50;;;;;;5014122;28;20196;-88
2022/07/16 08:21:23;;;;;;;4.10;3.30;;;23.10;35.60;;;;;;4996998;28;20196;-88
2022/07/16 08:26:32;;;;;;;4.88;3.53;;;23.10;35.10;;;;;;4995930;28;20236;-87
2022/07/16 08:28:58;;;;;;;5.85;3.22;;;23.10;34.90;;;;;;5008429;28;20205;-86
2022/07/16 08:31:24;;;;;;;4.75;3.08;;;23.30;34.90;;;;;;5018259;28;20220;-88
2022/07/16 08:33:49;;;;;;;3.90;2.95;;;23.30;34.80;;;;;;4992368;28;20261;-88
2022/07/16 08:36:15;;;;;;;3.65;3.25;;;23.40;35.00;;;;;;5013537;28;20611;-88
2022/07/16 08:38:41;;;;;;;3.72;3.20;;;23.30;35.60;;;;;;5007497;28;20209;-87
2022/07/16 08:41:07;;;;;;;5.03;3.33;;;23.50;36.10;;;;;;5015438;28;20200;-87
2022/07/16 08:43:33;;;;;;;3.78;3.47;;;23.70;35.80;;;;;;5017127;28;20196;-86
2022/07/16 08:46:00;;;;;;;3.83;3.53;;;24.00;34.50;;;;;;4995737;28;20253;-88
2022/07/16 08:48:25;;;;;;;3.70;3.40;;;24.00;34.90;;;;;;5024036;28;20205;-86
2022/07/16 08:50:54;;;;;;;7.82;3.90;;;24.10;34.70;;;;;;5015935;28;20201;-86
2022/07/16 08:53:23;;;;;;;3.60;3.30;;;24.20;35.00;;;;;;4982280;28;20198;-86
2022/07/16 08:55:52;;;;;;;3.50;3.10;;;24.10;35.00;;;;;;5017054;28;20725;-87
2022/07/16 08:58:18;;;;;;;4.45;3.25;;;24.20;34.20;;;;;;5020322;28;20190;-87
2022/07/16 09:00:45;;;;;;;4.15;3.15;;;24.40;33.70;;;;;;5013846;28;20218;-86
2022/07/16 09:03:14;;;;;;;3.30;3.10;;;24.20;34.20;;;;;;5006426;28;20268;-85
2022/07/16 09:05:41;;;;;;;5.28;3.35;;;24.20;33.80;;;;;;5021158;28;20253;-86
2022/07/16 09:08:07;;;;;;;4.05;3.60;;;24.40;34.40;;;;;;5003308;28;20226;-85
2022/07/16 09:10:35;;;;;;;4.53;4.10;;;24.30;34.80;;;;;;5008913;28;20366;-85
2022/07/16 09:13:01;;;;;;;5.00;3.20;;;24.60;33.90;;;;;;5013564;28;20186;-86
2022/07/16 09:15:33;;;;;;;3.35;3.08;;;24.40;33.50;;;;;;5022223;28;20258;-87
2022/07/16 09:18:18;;;;;;;3.38;3.08;;;24.50;33.50;;;;;;5019369;28;20202;-86
2022/07/16 09:20:56;;;;;;;6.45;3.22;;;24.80;33.30;;;;;;5023855;28;20186;-87
2022/07/16 09:23:31;;;;;;;3.45;3.10;;;24.80;32.80;;;;;;5023289;28;20202;-86
2022/07/16 09:26:10;;;;;;;3.88;3.33;;;24.90;33.30;;;;;;5020680;28;20276;-86
2022/07/16 09:28:45;;;;;;;4.45;3.65;;;24.80;33.80;;;;;;5023990;28;20173;-85
2022/07/16 09:31:29;;;;;;;3.85;3.55;;;24.90;33.60;;;;;;5017381;28;20188;-87
2022/07/16 09:34:05;;;;;;;4.78;3.60;;;25.00;32.70;;;;;;5018453;28;20641;-85
2022/07/16 09:36:31;;;;;;;3.72;3.42;;;25.30;32.90;;;;;;5013547;28;20214;-86
2022/07/16 09:38:57;;;;;;;5.82;3.85;;;25.50;33.00;;;;;;5013287;28;20249;-87
2022/07/16 09:41:22;;;;;;;7.50;4.03;;;25.70;32.40;;;;;;5022323;28;20186;-86
2022/07/16 09:43:49;;;;;;;4.15;3.70;;;25.90;32.20;;;;;;5000135;28;20197;-87
2022/07/16 09:46:20;;;;;;;5.22;3.90;;;26.00;33.20;;;;;;5019525;28;20213;-86
2022/07/16 09:48:47;;;;;;;4.30;3.90;;;26.20;31.00;;;;;;5023400;28;20189;-86
2022/07/16 09:51:19;;;;;;;4.32;4.03;;;26.30;30.70;;;;;;5010337;28;20210;-85
2022/07/16 09:53:50;;;;;;;4.38;3.97;;;26.40;30.50;;;;;;4991111;28;20301;-86
2022/07/16 09:56:18;;;;;;;4.43;4.03;;;26.60;30.70;;;;;;5013783;28;20229;-85
2022/07/16 09:58:47;;;;;;;3.80;3.60;;;26.50;29.60;;;;;;5015204;28;20192;-86
2022/07/16 10:01:13;;;;;;;4.40;4.10;;;26.40;29.40;;;;;;5010099;28;20182;-86
2022/07/16 10:03:38;;;;;;;4.10;3.80;;;26.40;29.90;;;;;;5029018;28;20177;-85
2022/07/16 10:06:04;;;;;;;4.75;4.10;;;26.50;30.00;;;;;;4991760;28;20264;-86
2022/07/16 10:08:31;;;;;;;4.10;3.70;;;26.70;29.50;;;;;;4999016;28;20245;-86
2022/07/16 10:10:57;;;;;;;4.20;3.88;;;26.50;29.40;;;;;;5001517;28;20207;-86
2022/07/16 10:13:26;;;;;;;4.22;3.92;;;26.40;29.30;;;;;;4999730;28;20220;-86
2022/07/16 10:15:51;;;;;;;5.97;4.50;;;26.20;29.80;;;;;;5014642;28;20256;-86
2022/07/16 10:18:45;;;;;;;3.92;3.70;;;26.50;29.80;;;;;;5014928;28;20221;-86
2022/07/16 10:21:21;;;;;;;4.22;3.92;;;26.50;29.40;;;;;;5016764;28;20206;-87
2022/07/16 10:24:04;;;;;;;4.22;3.92;;;27.00;29.50;;;;;;5015444;28;20232;-86
2022/07/16 10:26:32;;;;;;;4.38;3.85;;;27.20;28.60;;;;;;5012279;28;20236;-87
2022/07/16 10:28:59;;;;;;;4.65;4.25;;;26.90;28.70;;;;;;5007237;28;20186;-87
2022/07/16 10:31:41;;;;;;;4.72;3.97;;;27.20;29.00;;;;;;5013265;28;20205;-88
2022/07/16 10:34:13;;;;;;;4.15;3.75;;;27.40;28.00;;;;;;5015450;28;20229;-88
2022/07/16 10:36:53;;;;;;;4.60;4.20;;;27.60;28.70;;;;;;5019210;28;20212;-87
2022/07/16 10:39:21;;;;;;;4.18;3.85;;;28.00;27.80;;;;;;5007945;28;20181;-88
2022/07/16 10:41:49;;;;;;;4.80;4.40;;;28.30;28.30;;;;;;5011469;28;20189;-87
2022/07/16 10:44:15;;;;;;;4.65;4.22;;;28.70;26.80;;;;;;5009561;28;20191;-87
2022/07/16 10:46:53;;;;;;;4.63;4.30;;;29.00;26.80;;;;;;5009296;28;20237;-86
2022/07/16 10:49:20;;;;;;;4.57;4.30;;;28.80;26.90;;;;;;5009975;28;20292;-87
2022/07/16 10:52:08;;;;;;;4.43;4.13;;;29.10;26.90;;;;;;5011400;28;20645;-87
2022/07/16 10:54:42;;;;;;;4.20;3.90;;;29.30;26.40;;;;;;5007285;28;20227;-87
2022/07/16 10:57:12;;;;;;;4.70;4.30;;;29.40;26.50;;;;;;4999721;28;20225;-86
2022/07/16 10:59:40;;;;;;;4.75;4.45;;;29.50;26.00;;;;;;5030845;28;20218;-86
2022/07/16 11:02:09;;;;;;;4.50;4.20;;;29.70;25.90;;;;;;5005018;28;20193;-86
2022/07/16 11:04:39;;;;;;;4.80;4.50;;;30.00;26.40;;;;;;5009350;28;20185;-87
2022/07/16 11:07:11;;;;;;;4.65;4.20;;;30.20;26.40;;;;;;5013221;28;20206;-85
2022/07/16 11:09:41;;;;;;;4.78;4.38;;;30.10;26.00;;;;;;5003650;28;20189;-85
2022/07/16 11:12:21;;;;;;;8.98;4.53;;;30.10;26.60;;;;;;5003695;28;20624;-86
2022/07/16 11:14:48;;;;;;;4.60;4.30;;;29.90;26.60;;;;;;4994133;28;20205;-85
2022/07/16 11:17:16;;;;;;;4.82;4.43;;;30.00;26.30;;;;;;4995219;28;20209;-86
2022/07/16 11:19:44;;;;;;;4.82;4.53;;;30.10;26.00;;;;;;5010519;28;20189;-87
2022/07/16 11:22:11;;;;;;;4.65;4.30;;;30.50;25.70;;;;;;5004560;28;20189;-85
2022/07/16 11:24:54;;;;;;;4.93;4.63;;;30.40;25.40;;;;;;4994365;28;20196;-86
2022/07/16 11:27:35;;;;;;;5.40;5.00;;;30.80;25.10;;;;;;5013870;28;20193;-86
2022/07/16 11:30:09;;;;;;;5.13;4.82;;;30.80;25.30;;;;;;5013075;28;20615;-88
2022/07/16 11:32:45;;;;;;;5.60;4.88;;;30.70;25.40;;;;;;5006707;28;20213;-86
2022/07/16 11:35:12;;;;;;;5.57;5.20;;;30.60;25.00;;;;;;4992775;28;20343;-86
2022/07/16 11:37:58;;;;;;;5.15;4.78;;;30.60;25.10;;;;;;5003783;28;20210;-86
2022/07/16 11:40:37;;;;;;;5.07;4.78;;;30.50;25.40;;;;;;5008638;28;20577;-86
2022/07/16 11:43:04;;;;;;;4.93;4.60;;;30.70;25.40;;;;;;5006864;28;20185;-86
2022/07/16 11:45:39;;;;;;;5.10;4.68;;;30.80;24.90;;;;;;4993663;28;20209;-86
2022/07/16 11:48:15;;;;;;;5.30;4.90;;;30.30;25.20;;;;;;5008513;28;20199;-86
2022/07/16 11:50:43;;;;;;;5.63;4.70;;;30.70;25.10;;;;;;5013528;28;20201;-86
2022/07/16 11:53:09;;;;;;;5.43;4.60;;;31.00;24.70;;;;;;5002185;28;20550;-86
2022/07/16 11:55:44;;;;;;;5.32;4.90;;;31.00;25.00;;;;;;5003990;28;20224;-86
2022/07/16 11:58:17;;;;;;;5.20;4.80;;;31.40;24.80;;;;;;5017365;28;20201;-86
2022/07/16 12:00:48;;;;;;;92.88;88.07;;;31.80;24.10;;;;;;5005577;28;20217;-87
2022/07/16 12:03:14;;;;;;;5.15;4.82;;;31.90;23.90;;;;;;5005532;28;20193;-86
2022/07/16 12:05:40;;;;;;;5.40;5.10;;;31.10;25.20;;;;;;4998956;28;20249;-86
2022/07/16 12:08:08;;;;;;;5.32;5.03;;;30.80;24.90;;;;;;4987176;28;20216;-87
2022/07/16 12:10:33;;;;;;;4.55;4.15;;;31.30;25.20;;;;;;5012864;28;20222;-87
2022/07/16 12:13:04;;;;;;;5.45;5.15;;;31.30;24.10;;;;;;5008010;28;20263;-86
2022/07/16 12:15:30;;;;;;;4.70;4.40;;;31.60;23.90;;;;;;5009603;28;20243;-86
2022/07/16 12:18:11;;;;;;;5.95;4.60;;;31.80;24.10;;;;;;5010522;28;20700;-88
2022/07/16 12:20:36;;;;;;;4.30;4.10;;;31.70;24.60;;;;;;5010394;28;20213;-88
2022/07/16 12:23:08;;;;;;;4.80;4.43;;;31.10;25.10;;;;;;5012017;28;20190;-87
2022/07/16 12:26:00;;;;;;;4.80;4.50;;;31.30;25.40;;;;;;5008410;28;20270;-88
2022/07/16 12:28:25;;;;;;;5.13;4.70;;;31.60;24.80;;;;;;5010357;28;20241;-88
2022/07/16 12:31:00;;;;;;;4.75;4.45;;;31.80;24.20;;;;;;5011453;28;20731;-87
2022/07/16 12:33:30;;;;;;;4.57;4.38;;;31.60;24.40;;;;;;5010235;28;20189;-88
2022/07/16 12:36:05;;;;;;;4.90;4.60;;;31.50;24.00;;;;;;5024729;28;20202;-87
2022/07/16 12:38:49;;;;;;;5.15;4.75;;;31.80;24.00;;;;;;5015010;28;20556;-88
2022/07/16 12:41:24;;;;;;;5.05;4.75;;;32.00;24.60;;;;;;5006480;28;20183;-89
2022/07/16 12:43:54;;;;;;;5.45;4.60;;;31.80;24.50;;;;;;5013961;28;20629;-87
2022/07/16 12:46:22;;;;;;;5.00;4.60;;;32.00;24.80;;;;;;5012509;28;20240;-88
2022/07/16 12:48:51;;;;;;;4.93;4.63;;;31.40;24.50;;;;;;4993353;28;20284;-88
2022/07/16 12:51:19;;;;;;;5.07;4.78;;;31.80;24.30;;;;;;5018933;28;20201;-88
2022/07/16 12:53:46;;;;;;;5.10;4.80;;;32.30;24.40;;;;;;5008961;28;20197;-88
2022/07/16 12:58:57;;;;;;;5.35;4.93;;;32.70;23.60;;;;;;5015128;28;20197;-86
2022/07/16 13:01:24;;;;;;;5.13;4.82;;;33.20;23.90;;;;;;5016630;28;20188;-85
2022/07/16 13:03:51;;;;;;;5.57;5.18;;;33.60;23.70;;;;;;5012947;28;20181;-86
2022/07/16 13:06:18;;;;;;;4.93;4.53;;;33.30;23.40;;;;;;5012620;28;20783;-85